createdAt,value
2022-08-20T00:02:15.900Z,19.70
2022-08-20T00:04:44.259Z,19.60
2022-08-20T00:07:12.444Z,19.60
2022-08-20T00:09:42.811Z,19.50
2022-08-20T00:12:13.038Z,19.30
2022-08-20T00:14:41.503Z,19.30
2022-08-20T00:17:11.035Z,19.20
2022-08-20T00:19:39.166Z,19.10
2022-08-20T00:22:07.421Z,19.10
2022-08-20T00:24:35.534Z,19.10
2022-08-20T00:27:03.572Z,19.00
2022-08-20T00:29:31.634Z,19.00
2022-08-20T00:31:59.718Z,19.00
2022-08-20T00:34:30.148Z,19.00
2022-08-20T00:36:58.249Z,19.00
2022-08-20T00:39:26.303Z,19.10
2022-08-20T00:41:54.336Z,19.00
2022-08-20T00:44:23.926Z,19.00
2022-08-20T00:46:54.649Z,19.00
2022-08-20T00:49:25.810Z,19.00
2022-08-20T00:52:00.093Z,19.00
2022-08-20T00:54:31.278Z,18.90
2022-08-20T00:57:05.323Z,19.00
2022-08-20T00:59:37.128Z,18.90
2022-08-20T01:02:10.136Z,18.90
2022-08-20T01:04:38.390Z,18.80
2022-08-20T01:07:08.270Z,18.80
2022-08-20T01:09:57.674Z,18.80
2022-08-20T01:12:27.471Z,18.80
2022-08-20T01:14:56.410Z,18.80
2022-08-20T01:17:27.689Z,18.80
2022-08-20T01:19:59.335Z,18.80
2022-08-20T01:22:54.093Z,18.70
2022-08-20T01:25:29.255Z,18.70
2022-08-20T01:28:00.037Z,18.70
2022-08-20T01:30:29.859Z,18.60
2022-08-20T01:32:58.163Z,18.60
2022-08-20T01:35:27.231Z,18.70
2022-08-20T01:37:55.738Z,18.70
2022-08-20T01:40:36.646Z,18.70
2022-08-20T01:43:09.768Z,18.80
2022-08-20T01:45:40.085Z,18.90
2022-08-20T01:48:09.008Z,18.90
2022-08-20T01:50:41.109Z,19.00
2022-08-20T01:53:17.876Z,19.00
2022-08-20T01:55:46.210Z,19.00
2022-08-20T01:58:15.673Z,19.10
2022-08-20T02:00:44.210Z,19.10
2022-08-20T02:03:12.278Z,19.10
2022-08-20T02:05:40.355Z,19.10
2022-08-20T02:08:08.370Z,19.00
2022-08-20T02:10:36.678Z,19.00
2022-08-20T02:13:07.515Z,18.90
2022-08-20T02:15:37.304Z,19.00
2022-08-20T02:18:10.171Z,18.90
2022-08-20T02:20:39.371Z,18.90
2022-08-20T02:23:09.246Z,18.90
2022-08-20T02:25:40.207Z,18.90
2022-08-20T02:28:11.957Z,18.90
2022-08-20T02:30:44.977Z,18.90
2022-08-20T02:33:16.176Z,18.80
2022-08-20T02:35:48.100Z,18.80
2022-08-20T02:38:16.728Z,18.80
2022-08-20T02:40:46.608Z,18.80
2022-08-20T02:43:15.418Z,18.70
2022-08-20T02:45:44.827Z,18.70
2022-08-20T02:48:21.089Z,18.70
2022-08-20T02:50:51.909Z,18.70
2022-08-20T02:53:20.009Z,18.60
2022-08-20T02:55:48.313Z,18.70
2022-08-20T02:58:17.232Z,18.80
2022-08-20T03:00:47.399Z,18.80
2022-08-20T03:03:16.945Z,18.80
2022-08-20T03:05:45.919Z,18.90
2022-08-20T03:08:15.518Z,18.90
2022-08-20T03:10:45.767Z,18.90
2022-08-20T03:13:15.350Z,18.90
2022-08-20T03:15:47.389Z,19.00
2022-08-20T03:18:16.643Z,18.90
2022-08-20T03:20:45.976Z,18.90
2022-08-20T03:23:16.670Z,18.90
2022-08-20T03:25:45.250Z,18.80
2022-08-20T03:28:13.866Z,18.80
2022-08-20T03:30:43.099Z,18.80
2022-08-20T03:33:12.569Z,18.70
2022-08-20T03:35:40.887Z,18.70
2022-08-20T03:38:10.626Z,18.70
2022-08-20T03:40:39.551Z,18.60
2022-08-20T03:43:09.562Z,18.60
2022-08-20T03:45:39.424Z,18.60
2022-08-20T03:48:10.222Z,18.60
2022-08-20T03:50:42.400Z,18.60
2022-08-20T03:53:14.543Z,18.70
2022-08-20T03:55:45.459Z,18.60
2022-08-20T03:58:22.001Z,18.60
2022-08-20T04:01:01.749Z,18.60
2022-08-20T04:03:30.031Z,18.70
2022-08-20T04:05:59.578Z,18.70
2022-08-20T04:08:30.325Z,18.70
2022-08-20T04:10:59.766Z,18.70
2022-08-20T04:13:29.983Z,18.70
2022-08-20T04:15:59.201Z,18.60
2022-08-20T04:18:27.741Z,18.60
2022-08-20T04:20:56.140Z,18.60
2022-08-20T04:23:25.582Z,18.60
2022-08-20T04:25:56.449Z,18.60
2022-08-20T04:28:28.269Z,18.40
2022-08-20T04:30:57.710Z,18.40
2022-08-20T04:33:33.949Z,18.40
2022-08-20T04:36:05.722Z,18.30
2022-08-20T04:38:50.135Z,18.30
2022-08-20T04:41:23.252Z,18.20
2022-08-20T04:43:52.949Z,18.20
2022-08-20T04:46:22.378Z,18.10
2022-08-20T04:48:50.790Z,18.10
2022-08-20T04:51:19.593Z,18.00
2022-08-20T04:53:54.319Z,18.10
2022-08-20T04:56:24.599Z,18.10
2022-08-20T04:58:53.754Z,18.00
2022-08-20T05:01:23.715Z,18.00
2022-08-20T05:03:54.587Z,18.00
2022-08-20T05:06:24.581Z,18.10
2022-08-20T05:08:54.389Z,18.00
2022-08-20T05:11:35.357Z,18.10
2022-08-20T05:14:08.027Z,18.10
2022-08-20T05:16:38.835Z,18.00
2022-08-20T05:19:08.397Z,17.90
2022-08-20T05:21:36.836Z,17.90
2022-08-20T05:24:07.154Z,17.90
2022-08-20T05:26:35.540Z,17.90
2022-08-20T05:29:04.912Z,17.80
2022-08-20T05:31:34.566Z,17.80
2022-08-20T05:34:02.953Z,17.80
2022-08-20T05:36:31.083Z,17.70
2022-08-20T05:38:59.209Z,17.70
2022-08-20T05:41:30.485Z,17.60
2022-08-20T05:44:01.693Z,17.60
2022-08-20T05:46:31.130Z,17.60
2022-08-20T05:49:00.160Z,17.70
2022-08-20T05:51:29.030Z,17.60
2022-08-20T05:53:59.339Z,17.60
2022-08-20T05:56:31.161Z,17.60
2022-08-20T05:59:02.603Z,17.60
2022-08-20T06:01:31.239Z,17.70
2022-08-20T06:04:16.740Z,17.70
2022-08-20T06:06:47.185Z,17.70
2022-08-20T06:09:28.047Z,17.80
2022-08-20T06:12:01.240Z,17.80
2022-08-20T06:14:29.507Z,17.80
2022-08-20T06:17:04.716Z,17.90
2022-08-20T06:19:33.911Z,17.90
2022-08-20T06:22:02.427Z,17.90
2022-08-20T06:24:45.334Z,17.90
2022-08-20T06:27:16.861Z,18.00
2022-08-20T06:29:45.255Z,18.00
2022-08-20T06:32:13.365Z,18.10
2022-08-20T06:34:49.798Z,18.20
2022-08-20T06:37:22.611Z,18.40
2022-08-20T06:39:51.715Z,18.50
2022-08-20T06:42:23.373Z,18.60
2022-08-20T06:44:51.401Z,18.70
2022-08-20T06:47:21.328Z,18.70
2022-08-20T06:49:49.851Z,18.50
2022-08-20T06:52:18.292Z,18.40
2022-08-20T06:54:47.092Z,18.30
2022-08-20T06:57:15.803Z,18.10
2022-08-20T06:59:45.220Z,17.90
2022-08-20T07:02:29.264Z,17.90
2022-08-20T07:04:58.988Z,17.80
2022-08-20T07:07:27.207Z,17.80
2022-08-20T07:10:01.040Z,17.90
2022-08-20T07:12:29.144Z,17.90
2022-08-20T07:14:58.586Z,17.90
2022-08-20T07:17:26.675Z,17.90
2022-08-20T07:19:54.738Z,18.00
2022-08-20T07:22:23.211Z,17.90
2022-08-20T07:24:51.334Z,17.90
2022-08-20T07:27:22.905Z,17.80
2022-08-20T07:30:12.884Z,17.70
2022-08-20T07:32:45.429Z,17.60
2022-08-20T07:35:16.014Z,17.70
2022-08-20T07:37:46.494Z,17.70
2022-08-20T07:40:23.755Z,17.70
2022-08-20T07:42:54.201Z,17.70
2022-08-20T07:45:22.498Z,17.70
2022-08-20T07:47:53.519Z,17.70
2022-08-20T07:50:27.044Z,17.70
2022-08-20T07:52:55.290Z,17.70
2022-08-20T07:55:23.501Z,17.60
2022-08-20T07:57:51.892Z,17.80
2022-08-20T08:00:23.167Z,17.90
2022-08-20T08:02:52.923Z,17.90
2022-08-20T08:05:21.197Z,17.90
2022-08-20T08:07:49.202Z,17.90
2022-08-20T08:10:21.042Z,17.90
2022-08-20T08:12:51.981Z,17.90
2022-08-20T08:15:24.565Z,18.00
2022-08-20T08:17:57.095Z,18.10
2022-08-20T08:20:25.162Z,18.30
2022-08-20T08:22:53.797Z,18.40
2022-08-20T08:25:22.084Z,18.50
2022-08-20T08:27:50.230Z,18.40
2022-08-20T08:30:18.754Z,18.30
2022-08-20T08:33:04.261Z,18.30
2022-08-20T08:35:34.197Z,18.20
2022-08-20T08:38:02.672Z,18.30
2022-08-20T08:40:31.814Z,18.50
2022-08-20T08:43:04.245Z,18.70
2022-08-20T08:45:41.199Z,18.70
2022-08-20T08:48:11.609Z,18.80
2022-08-20T08:50:54.076Z,18.90
2022-08-20T08:53:27.103Z,19.10
2022-08-20T08:55:55.284Z,19.30
2022-08-20T08:58:23.365Z,19.50
2022-08-20T09:00:56.383Z,19.50
2022-08-20T09:03:29.246Z,19.50
2022-08-20T09:06:02.102Z,19.60
2022-08-20T09:08:33.755Z,19.70
2022-08-20T09:11:08.362Z,19.70
2022-08-20T09:13:36.710Z,19.70
2022-08-20T09:16:05.393Z,19.60
2022-08-20T09:18:33.751Z,19.70
2022-08-20T09:21:03.155Z,19.70
2022-08-20T09:23:31.256Z,19.70
2022-08-20T09:25:59.481Z,19.70
2022-08-20T09:28:32.304Z,19.90
2022-08-20T09:31:03.292Z,20.00
2022-08-20T09:33:32.798Z,20.10
2022-08-20T09:36:00.866Z,20.20
2022-08-20T09:38:30.416Z,20.00
2022-08-20T09:40:58.445Z,20.00
2022-08-20T09:43:26.499Z,20.20
2022-08-20T09:45:54.615Z,20.40
2022-08-20T09:48:29.598Z,20.50
2022-08-20T09:51:00.294Z,20.70
2022-08-20T09:53:30.468Z,20.90
2022-08-20T09:56:00.081Z,21.00
2022-08-20T09:58:39.538Z,21.00
2022-08-20T10:01:14.188Z,21.00
2022-08-20T10:03:42.639Z,21.00
2022-08-20T10:06:11.426Z,21.20
2022-08-20T10:08:40.879Z,21.30
2022-08-20T10:11:08.963Z,21.30
2022-08-20T10:13:37.050Z,21.30
2022-08-20T10:16:05.577Z,21.20
2022-08-20T10:18:33.729Z,21.30
2022-08-20T10:21:01.763Z,21.30
2022-08-20T10:23:30.341Z,21.40
2022-08-20T10:25:59.785Z,21.50
2022-08-20T10:28:27.885Z,21.70
2022-08-20T10:30:55.866Z,21.70
2022-08-20T10:33:23.909Z,22.00
2022-08-20T10:35:53.274Z,22.30
2022-08-20T10:38:27.946Z,22.30
2022-08-20T10:40:55.996Z,22.20
2022-08-20T10:43:25.435Z,22.30
2022-08-20T10:45:53.581Z,22.20
2022-08-20T10:48:21.845Z,22.10
2022-08-20T10:50:50.112Z,22.40
2022-08-20T10:53:18.454Z,22.50
2022-08-20T10:55:46.949Z,22.70
2022-08-20T10:58:15.049Z,22.70
2022-08-20T11:00:45.655Z,22.90
2022-08-20T11:03:14.736Z,23.00
2022-08-20T11:05:42.927Z,23.10
2022-08-20T11:08:10.967Z,23.00
2022-08-20T11:10:39.335Z,23.20
2022-08-20T11:13:09.210Z,23.30
2022-08-20T11:15:39.712Z,23.10
2022-08-20T11:18:09.763Z,23.30
2022-08-20T11:20:38.331Z,23.40
2022-08-20T11:23:06.483Z,23.40
2022-08-20T11:25:34.607Z,23.40
2022-08-20T11:28:03.398Z,23.60
2022-08-20T11:30:34.580Z,23.70
2022-08-20T11:33:03.466Z,24.00
2022-08-20T11:35:48.448Z,24.20
2022-08-20T11:38:17.775Z,24.30
2022-08-20T11:40:47.302Z,24.70
2022-08-20T11:43:16.987Z,25.00
2022-08-20T11:45:47.540Z,25.30
2022-08-20T11:48:16.739Z,25.50
2022-08-20T11:50:46.970Z,25.50
2022-08-20T11:53:15.288Z,25.40
2022-08-20T11:55:44.238Z,25.60
2022-08-20T11:58:12.422Z,25.50
2022-08-20T12:00:40.950Z,25.70
2022-08-20T12:03:12.131Z,25.60
2022-08-20T12:05:41.591Z,25.50
2022-08-20T12:08:26.724Z,25.70
2022-08-20T12:10:57.423Z,26.10
2022-08-20T12:13:30.977Z,26.50
2022-08-20T12:16:14.155Z,26.70
2022-08-20T12:18:42.442Z,26.90
2022-08-20T12:21:10.486Z,26.80
2022-08-20T12:23:39.919Z,26.50
2022-08-20T12:26:08.625Z,26.70
2022-08-20T12:28:36.774Z,27.20
2022-08-20T12:31:04.957Z,27.20
2022-08-20T12:33:33.134Z,27.50
2022-08-20T12:36:01.318Z,27.60
2022-08-20T12:38:29.361Z,27.90
2022-08-20T12:40:58.789Z,28.00
2022-08-20T12:43:26.892Z,27.70
2022-08-20T12:45:54.989Z,27.60
2022-08-20T12:48:23.076Z,28.00
2022-08-20T12:50:52.609Z,28.50
2022-08-20T12:53:20.695Z,29.00
2022-08-20T12:55:48.739Z,28.70
2022-08-20T12:58:19.246Z,28.40
2022-08-20T13:00:50.980Z,27.90
2022-08-20T13:03:20.887Z,27.80
2022-08-20T13:05:50.063Z,28.40
2022-08-20T13:08:19.182Z,29.40
2022-08-20T13:10:47.652Z,29.80
2022-08-20T13:13:20.987Z,30.10
2022-08-20T13:15:50.437Z,30.20
2022-08-20T13:18:18.842Z,29.80
2022-08-20T13:20:46.910Z,29.70
2022-08-20T13:23:15.151Z,29.60
2022-08-20T13:25:43.254Z,30.10
2022-08-20T13:28:11.450Z,30.80
2022-08-20T13:30:41.458Z,31.00
2022-08-20T13:33:09.986Z,31.00
2022-08-20T13:35:38.190Z,30.80
2022-08-20T13:38:06.318Z,31.00
2022-08-20T13:40:34.400Z,31.60
2022-08-20T13:43:06.860Z,32.20
2022-08-20T13:45:36.545Z,32.40
2022-08-20T13:48:09.986Z,32.50
2022-08-20T13:50:47.172Z,32.80
2022-08-20T13:53:16.350Z,33.10
2022-08-20T13:55:45.608Z,33.30
2022-08-20T13:58:13.769Z,33.10
2022-08-20T14:00:41.975Z,33.10
2022-08-20T14:03:11.794Z,32.70
2022-08-20T14:05:42.321Z,32.90
2022-08-20T14:08:13.160Z,32.80
2022-08-20T14:10:42.711Z,33.30
2022-08-20T14:13:15.301Z,34.00
2022-08-20T14:15:44.250Z,34.00
2022-08-20T14:18:15.154Z,33.50
2022-08-20T14:20:45.454Z,33.10
2022-08-20T14:23:14.329Z,32.80
2022-08-20T14:25:45.466Z,33.10
2022-08-20T14:28:18.200Z,33.50
2022-08-20T14:30:53.213Z,33.60
2022-08-20T14:33:24.357Z,33.60
2022-08-20T14:35:53.314Z,34.00
2022-08-20T14:38:21.663Z,34.60
2022-08-20T14:40:50.403Z,34.60
2022-08-20T14:43:18.971Z,34.40
2022-08-20T14:45:47.043Z,34.20
2022-08-20T14:48:15.370Z,34.50
2022-08-20T14:50:44.906Z,34.60
2022-08-20T14:53:12.963Z,34.60
2022-08-20T14:55:41.119Z,34.60
2022-08-20T14:58:10.613Z,34.80
2022-08-20T15:00:38.719Z,34.80
2022-08-20T15:03:07.014Z,35.00
2022-08-20T15:05:39.714Z,34.60
2022-08-20T15:08:10.843Z,34.00
2022-08-20T15:10:39.726Z,33.90
2022-08-20T15:13:08.005Z,33.40
2022-08-20T15:15:36.099Z,33.00
2022-08-20T15:18:04.594Z,33.00
2022-08-20T15:20:34.685Z,33.10
2022-08-20T15:23:03.718Z,33.50
2022-08-20T15:25:37.693Z,33.30
2022-08-20T15:28:08.426Z,33.00
2022-08-20T15:30:38.331Z,31.80
2022-08-20T15:33:06.665Z,32.10
2022-08-20T15:35:35.261Z,31.80
2022-08-20T15:38:03.540Z,31.70
2022-08-20T15:40:34.199Z,31.50
2022-08-20T15:43:04.611Z,31.20
2022-08-20T15:45:34.077Z,30.90
2022-08-20T15:48:09.181Z,31.30
2022-08-20T15:51:27.406Z,31.30
2022-08-20T15:54:00.197Z,30.90
2022-08-20T15:56:48.494Z,30.40
2022-08-20T15:59:32.183Z,30.00
2022-08-20T16:02:14.762Z,29.50
2022-08-20T16:05:04.566Z,29.60
2022-08-20T16:07:41.456Z,29.60
2022-08-20T16:10:17.739Z,29.20
2022-08-20T16:12:51.222Z,29.00
2022-08-20T16:15:24.619Z,28.80
2022-08-20T16:18:03.910Z,28.60
2022-08-20T16:20:37.005Z,28.50
2022-08-20T16:23:05.324Z,28.50
2022-08-20T16:25:45.605Z,28.50
2022-08-20T16:28:24.890Z,28.50
2022-08-20T16:30:59.331Z,28.00
2022-08-20T16:33:32.815Z,27.60
2022-08-20T16:36:08.018Z,27.50
2022-08-20T16:38:42.398Z,27.50
2022-08-20T16:41:15.096Z,27.60
2022-08-20T16:43:53.706Z,27.60
2022-08-20T16:46:26.297Z,27.60
2022-08-20T16:48:58.195Z,27.80
2022-08-20T16:51:41.674Z,27.70
2022-08-20T16:54:10.650Z,27.50
2022-08-20T16:56:41.397Z,27.30
2022-08-20T16:59:13.112Z,27.20
2022-08-20T17:02:07.302Z,27.10
2022-08-20T17:04:58.723Z,27.00
2022-08-20T17:07:33.354Z,27.00
2022-08-20T17:10:12.399Z,27.10
2022-08-20T17:12:40.554Z,27.00
2022-08-20T17:15:21.130Z,26.90
2022-08-20T17:17:49.250Z,26.80
2022-08-20T17:20:20.436Z,26.80
2022-08-20T17:22:51.230Z,26.70
2022-08-20T17:25:22.575Z,26.70
2022-08-20T17:27:50.628Z,26.60
2022-08-20T17:30:25.262Z,26.60
2022-08-20T17:32:59.594Z,26.60
2022-08-20T17:35:34.018Z,26.50
2022-08-20T17:38:03.737Z,26.50
2022-08-20T17:40:39.953Z,26.50
2022-08-20T17:43:10.752Z,26.40
2022-08-20T17:45:44.080Z,26.30
2022-08-20T17:48:16.846Z,26.30
2022-08-20T17:50:45.429Z,26.20
2022-08-20T17:53:23.446Z,26.10
2022-08-20T17:55:55.614Z,26.00
2022-08-20T17:58:36.653Z,26.00
2022-08-20T18:01:09.101Z,26.00
2022-08-20T18:03:39.650Z,25.90
2022-08-20T18:06:16.952Z,25.80
2022-08-20T18:08:54.415Z,25.70
2022-08-20T18:11:28.077Z,25.60
2022-08-20T18:14:07.626Z,25.60
2022-08-20T18:16:45.281Z,25.60
2022-08-20T18:19:23.485Z,25.50
2022-08-20T18:22:07.959Z,25.40
2022-08-20T18:24:42.470Z,25.10
2022-08-20T18:27:14.991Z,24.80
2022-08-20T18:29:47.402Z,24.50
2022-08-20T18:32:30.254Z,24.20
2022-08-20T18:35:13.718Z,23.90
2022-08-20T18:37:42.143Z,23.50
2022-08-20T18:40:28.642Z,23.10
2022-08-20T18:42:58.744Z,22.70
2022-08-20T18:45:32.411Z,22.50
2022-08-20T18:48:02.769Z,22.30
2022-08-20T18:50:34.853Z,22.20
2022-08-20T18:53:11.702Z,22.00
2022-08-20T18:55:42.929Z,21.90
2022-08-20T18:58:30.290Z,21.60
2022-08-20T19:01:01.037Z,21.50
2022-08-20T19:03:38.026Z,21.40
2022-08-20T19:06:19.869Z,21.30
2022-08-20T19:08:52.390Z,21.20
2022-08-20T19:11:48.327Z,21.00
2022-08-20T19:14:41.926Z,21.00
2022-08-20T19:17:15.419Z,21.00
2022-08-20T19:19:44.874Z,20.90
2022-08-20T19:22:17.297Z,20.90
2022-08-20T19:24:46.188Z,20.80
2022-08-20T19:27:14.531Z,20.80
2022-08-20T19:29:49.112Z,20.70
2022-08-20T19:32:20.683Z,20.60
2022-08-20T19:34:56.000Z,20.60
2022-08-20T19:37:35.172Z,20.50
2022-08-20T19:40:24.483Z,20.50
2022-08-20T19:42:59.570Z,20.40
2022-08-20T19:45:32.531Z,20.40
2022-08-20T19:48:15.227Z,20.30
2022-08-20T19:50:53.518Z,20.30
2022-08-20T19:53:30.015Z,20.30
2022-08-20T19:56:01.414Z,20.30
2022-08-20T19:58:31.122Z,20.30
2022-08-20T20:00:59.681Z,20.30
2022-08-20T20:03:30.579Z,20.30
2022-08-20T20:06:03.600Z,20.30
2022-08-20T20:08:45.943Z,20.30
2022-08-20T20:11:20.270Z,20.10
2022-08-20T20:13:48.555Z,20.10
2022-08-20T20:16:24.086Z,20.10
2022-08-20T20:19:15.628Z,20.10
2022-08-20T20:21:44.374Z,20.10
2022-08-20T20:24:23.210Z,19.90
2022-08-20T20:26:51.454Z,19.80
2022-08-20T20:29:25.204Z,19.80
2022-08-20T20:31:56.150Z,19.80
2022-08-20T20:34:28.105Z,19.70
2022-08-20T20:37:06.958Z,19.60
2022-08-20T20:39:38.437Z,19.40
2022-08-20T20:42:08.924Z,19.50
2022-08-20T20:44:39.406Z,19.40
2022-08-20T20:47:10.523Z,19.30
2022-08-20T20:49:49.739Z,19.10
2022-08-20T20:52:25.090Z,18.80
2022-08-20T20:55:04.286Z,18.70
2022-08-20T20:57:38.525Z,18.50
2022-08-20T21:00:11.365Z,18.30
2022-08-20T21:02:39.479Z,18.10
2022-08-20T21:05:08.611Z,18.00
2022-08-20T21:07:50.581Z,17.80
2022-08-20T21:10:21.226Z,17.60
2022-08-20T21:12:52.953Z,17.40
2022-08-20T21:15:23.596Z,17.20
2022-08-20T21:17:52.230Z,17.20
2022-08-20T21:20:21.161Z,17.00
2022-08-20T21:22:50.523Z,17.00
2022-08-20T21:25:20.264Z,16.90
2022-08-20T21:27:51.061Z,16.80
2022-08-20T21:30:20.482Z,16.90
2022-08-20T21:32:48.570Z,16.90
2022-08-20T21:35:16.830Z,17.10
2022-08-20T21:37:44.929Z,17.30
2022-08-20T21:40:18.121Z,17.30
2022-08-20T21:42:49.862Z,17.40
2022-08-20T21:45:19.793Z,17.30
2022-08-20T21:47:49.136Z,17.30
2022-08-20T21:50:19.052Z,17.20
2022-08-20T21:52:55.310Z,17.20
2022-08-20T21:55:30.562Z,17.10
2022-08-20T21:57:59.449Z,17.20
2022-08-20T22:00:54.393Z,17.10
2022-08-20T22:03:24.622Z,17.00
2022-08-20T22:05:53.439Z,16.80
2022-08-20T22:08:24.256Z,16.70
2022-08-20T22:10:58.040Z,16.60
2022-08-20T22:13:31.234Z,16.50
2022-08-20T22:15:59.770Z,16.40
2022-08-20T22:18:27.833Z,16.20
2022-08-20T22:20:55.872Z,16.10
2022-08-20T22:23:24.565Z,16.00
2022-08-20T22:25:52.598Z,16.00
2022-08-20T22:28:22.506Z,16.10
2022-08-20T22:30:50.670Z,15.90
2022-08-20T22:33:22.146Z,15.80
2022-08-20T22:35:53.409Z,15.80
2022-08-20T22:38:21.896Z,15.70
2022-08-20T22:40:50.443Z,15.60
2022-08-20T22:43:18.806Z,15.60
2022-08-20T22:45:51.470Z,15.50
2022-08-20T22:48:21.370Z,15.40
2022-08-20T22:50:51.145Z,15.20
2022-08-20T22:53:20.137Z,15.30
2022-08-20T22:55:48.627Z,15.20
2022-08-20T22:58:16.742Z,15.10
2022-08-20T23:00:45.987Z,15.10
2022-08-20T23:03:16.445Z,15.10
2022-08-20T23:05:49.353Z,15.00
2022-08-20T23:08:17.370Z,15.10
2022-08-20T23:10:45.413Z,15.00
2022-08-20T23:13:13.424Z,15.00
2022-08-20T23:15:45.510Z,15.00
2022-08-20T23:18:17.755Z,15.00
2022-08-20T23:20:51.105Z,15.10
2022-08-20T23:23:21.554Z,15.10
2022-08-20T23:25:49.837Z,15.10
2022-08-20T23:28:18.943Z,15.10
2022-08-20T23:30:47.837Z,15.10
2022-08-20T23:33:17.762Z,14.90
2022-08-20T23:35:46.823Z,14.90
2022-08-20T23:38:15.045Z,14.80
2022-08-20T23:40:43.773Z,14.70
2022-08-20T23:43:12.003Z,14.70
2022-08-20T23:45:41.091Z,14.60
2022-08-20T23:48:09.677Z,14.50
2022-08-20T23:50:39.365Z,14.40
2022-08-20T23:53:07.413Z,14.30
2022-08-20T23:55:35.663Z,14.10
2022-08-20T23:58:03.694Z,14.10
